Etusivu
METAR-TAF:

METAR-TAF

Lentoasemat :

Luxemburg, Luxemburg

Findelin kansainvälinen lentoasema

Leveyspiiri: 49-37N, Pituuspiiri: 006-13E, korkeus merenpinnasta: 376 m

Tämänhetkinen sää

Tämä raportti tehtiin 35 minuuttia sitten, kello 23.20 UTC
Tuuli 11 kn pohjoisesta
Lämpötila 19°C
Kosteus 56%
Ilmanpaine 1022 hPa
Näkyvyys 10 km tai enemmän
ei pilviä alle 1500 m:ssä eikä cumulonimbus-pilviä

METAR: ELLX 202320Z 35011KT CAVOK 19/10 Q1022 NOSIG

Aika: 01:55 (23:55 UTC)

Sääennuste

Tämä raportti tehtiin 55 minuuttia sitten, kello 23.00 UTC
Ennuste voimassa 21. päivästä klo 00 UTC - 22. päivään klo 06 UTC
Tuuli 5 kn pohjoisen/luoteesta
Näkyvyys 10 km tai enemmän
ei pilviä alle 1500 m:ssä eikä cumulonimbus-pilviä
Ajoittain
21. päivästä klo 06 UTC - 21. päivään klo 21 UTC
Tuuli 3 kn eri suunnista
Tulossa
21. päivästä klo 21 UTC - 21. päivään klo 24 UTC
Tuuli 8 kn etelästä/lounaasta

TAF: ELLX 202300Z 2100/2206 34005KT CAVOK TEMPO 2106/2121 VRB03KT BECMG 2121/2124 20008KT

Säähavainnot ja -ennusteet yli 4000 lentoasemalta (METAR- ja TAF-raportit).

Käytössä olevat sääasemat on merkitty karttaan keltaisilla ja punaisilla pisteillä.

Aseta hiiri pisteen päälle nähdäksesi sääaseman nimen.

Klikkaa sitten nähdäksesi säähavainnot ja -ennusteet.

Kartan vaihtaminen: klikkaa mustalla rastilla varustettuja vihreitä pisteitä, niin voit zoomata sisään; viivalla varustettua vihreää pistettä, niin voit zoomata ulos tai vihreitä nuolia, niin pääset viereisille kartoille.


METAR-TAF: